sensor_id;sensor_type;location;lat;lon;timestamp;temperature;humidity
29731;DHT22;16639;51.488;0.152;2023-02-23T00:01:54;8.30;99.90
29731;DHT22;16639;51.488;0.152;2023-02-23T00:04:23;8.30;99.90
29731;DHT22;16639;51.488;0.152;2023-02-23T00:06:51;8.30;99.90
29731;DHT22;16639;51.488;0.152;2023-02-23T00:09:19;8.30;99.90
29731;DHT22;16639;51.488;0.152;2023-02-23T00:12:03;8.20;99.90
29731;DHT22;16639;51.488;0.152;2023-02-23T00:14:37;8.20;99.90
29731;DHT22;16639;51.488;0.152;2023-02-23T00:17:05;8.20;99.90
29731;DHT22;16639;51.488;0.152;2023-02-23T00:19:40;8.20;99.90
29731;DHT22;16639;51.488;0.152;2023-02-23T00:22:10;8.00;99.90
29731;DHT22;16639;51.488;0.152;2023-02-23T00:24:38;8.10;99.90
29731;DHT22;16639;51.488;0.152;2023-02-23T00:27:08;8.00;99.90
29731;DHT22;16639;51.488;0.152;2023-02-23T00:29:36;8.00;99.90
29731;DHT22;16639;51.488;0.152;2023-02-23T00:32:06;8.00;99.90
29731;DHT22;16639;51.488;0.152;2023-02-23T00:34:34;8.00;99.90
29731;DHT22;16639;51.488;0.152;2023-02-23T00:37:03;8.00;99.90
29731;DHT22;16639;51.488;0.152;2023-02-23T00:39:31;7.90;99.90
29731;DHT22;16639;51.488;0.152;2023-02-23T00:41:58;7.90;99.90
29731;DHT22;16639;51.488;0.152;2023-02-23T00:44:30;7.90;99.90
29731;DHT22;16639;51.488;0.152;2023-02-23T00:47:00;7.90;99.90
29731;DHT22;16639;51.488;0.152;2023-02-23T00:49:28;8.00;99.90
29731;DHT22;16639;51.488;0.152;2023-02-23T00:51:55;7.90;99.90
29731;DHT22;16639;51.488;0.152;2023-02-23T00:54:22;7.90;99.90
29731;DHT22;16639;51.488;0.152;2023-02-23T00:56:50;7.90;99.90
29731;DHT22;16639;51.488;0.152;2023-02-23T00:59:18;7.90;99.90
29731;DHT22;16639;51.488;0.152;2023-02-23T01:01:47;7.80;99.90
29731;DHT22;16639;51.488;0.152;2023-02-23T01:04:14;7.80;99.90
29731;DHT22;16639;51.488;0.152;2023-02-23T01:06:42;7.80;99.90
29731;DHT22;16639;51.488;0.152;2023-02-23T01:09:14;8.20;99.90
29731;DHT22;16639;51.488;0.152;2023-02-23T01:11:47;7.80;99.90
29731;DHT22;16639;51.488;0.152;2023-02-23T01:14:15;7.90;99.90
29731;DHT22;16639;51.488;0.152;2023-02-23T01:16:42;7.90;99.90
29731;DHT22;16639;51.488;0.152;2023-02-23T01:19:10;8.40;99.90
29731;DHT22;16639;51.488;0.152;2023-02-23T01:21:40;7.80;99.90
29731;DHT22;16639;51.488;0.152;2023-02-23T01:24:09;7.90;99.90
29731;DHT22;16639;51.488;0.152;2023-02-23T01:26:40;7.90;99.90
29731;DHT22;16639;51.488;0.152;2023-02-23T01:29:14;7.90;99.90
29731;DHT22;16639;51.488;0.152;2023-02-23T01:31:44;7.90;99.90
29731;DHT22;16639;51.488;0.152;2023-02-23T01:34:13;7.90;99.90
29731;DHT22;16639;51.488;0.152;2023-02-23T01:36:42;7.90;99.90
29731;DHT22;16639;51.488;0.152;2023-02-23T01:39:12;7.90;99.90
29731;DHT22;16639;51.488;0.152;2023-02-23T01:41:40;7.80;99.90
29731;DHT22;16639;51.488;0.152;2023-02-23T01:46:44;7.70;99.90
29731;DHT22;16639;51.488;0.152;2023-02-23T01:49:15;7.70;99.90
29731;DHT22;16639;51.488;0.152;2023-02-23T01:51:49;7.70;99.90
29731;DHT22;16639;51.488;0.152;2023-02-23T01:54:21;7.70;99.90
29731;DHT22;16639;51.488;0.152;2023-02-23T01:56:52;7.70;99.90
29731;DHT22;16639;51.488;0.152;2023-02-23T01:59:43;7.70;99.90
29731;DHT22;16639;51.488;0.152;2023-02-23T02:02:11;7.70;99.90
29731;DHT22;16639;51.488;0.152;2023-02-23T02:04:40;7.70;99.90
29731;DHT22;16639;51.488;0.152;2023-02-23T02:07:13;7.80;99.90
29731;DHT22;16639;51.488;0.152;2023-02-23T02:09:42;7.80;99.90
29731;DHT22;16639;51.488;0.152;2023-02-23T02:12:30;7.70;99.90
29731;DHT22;16639;51.488;0.152;2023-02-23T02:14:59;7.70;99.90
29731;DHT22;16639;51.488;0.152;2023-02-23T02:17:52;7.70;99.90
29731;DHT22;16639;51.488;0.152;2023-02-23T02:40:27;7.70;99.90
29731;DHT22;16639;51.488;0.152;2023-02-23T02:43:15;7.70;99.90
29731;DHT22;16639;51.488;0.152;2023-02-23T02:53:34;7.60;99.90
29731;DHT22;16639;51.488;0.152;2023-02-23T02:56:04;7.60;99.90
29731;DHT22;16639;51.488;0.152;2023-02-23T02:58:33;7.60;99.90
29731;DHT22;16639;51.488;0.152;2023-02-23T03:01:07;7.60;99.90
29731;DHT22;16639;51.488;0.152;2023-02-23T03:03:53;7.70;99.90
29731;DHT22;16639;51.488;0.152;2023-02-23T03:06:52;7.70;99.90
29731;DHT22;16639;51.488;0.152;2023-02-23T03:09:52;7.70;99.90
29731;DHT22;16639;51.488;0.152;2023-02-23T03:15:36;7.50;99.90
29731;DHT22;16639;51.488;0.152;2023-02-23T03:21:49;7.50;99.90
29731;DHT22;16639;51.488;0.152;2023-02-23T03:24:59;8.30;99.90
29731;DHT22;16639;51.488;0.152;2023-02-23T03:28:13;7.60;99.90
29731;DHT22;16639;51.488;0.152;2023-02-23T03:31:13;7.60;99.90
29731;DHT22;16639;51.488;0.152;2023-02-23T03:34:12;7.70;99.90
29731;DHT22;16639;51.488;0.152;2023-02-23T03:40:15;7.80;99.90
29731;DHT22;16639;51.488;0.152;2023-02-23T03:43:06;7.80;99.90
29731;DHT22;16639;51.488;0.152;2023-02-23T03:45:55;8.70;99.90
29731;DHT22;16639;51.488;0.152;2023-02-23T03:48:43;7.80;99.90
29731;DHT22;16639;51.488;0.152;2023-02-23T03:51:32;7.80;99.90
29731;DHT22;16639;51.488;0.152;2023-02-23T03:54:33;7.80;99.90
29731;DHT22;16639;51.488;0.152;2023-02-23T03:57:21;7.80;99.90
29731;DHT22;16639;51.488;0.152;2023-02-23T04:00:13;6.60;99.90
29731;DHT22;16639;51.488;0.152;2023-02-23T04:03:04;7.70;99.90
29731;DHT22;16639;51.488;0.152;2023-02-23T04:05:53;7.60;99.90
29731;DHT22;16639;51.488;0.152;2023-02-23T04:08:41;7.60;99.90
29731;DHT22;16639;51.488;0.152;2023-02-23T04:11:42;7.70;99.90
29731;DHT22;16639;51.488;0.152;2023-02-23T04:14:42;7.70;99.90
29731;DHT22;16639;51.488;0.152;2023-02-23T04:17:12;7.60;99.90
29731;DHT22;16639;51.488;0.152;2023-02-23T04:19:51;7.60;99.90
29731;DHT22;16639;51.488;0.152;2023-02-23T04:22:20;7.70;99.90
29731;DHT22;16639;51.488;0.152;2023-02-23T04:24:47;9.10;99.90
29731;DHT22;16639;51.488;0.152;2023-02-23T04:27:15;8.30;99.90
29731;DHT22;16639;51.488;0.152;2023-02-23T04:29:43;7.70;99.90
29731;DHT22;16639;51.488;0.152;2023-02-23T04:32:16;7.80;99.90
29731;DHT22;16639;51.488;0.152;2023-02-23T04:34:45;7.70;99.90
29731;DHT22;16639;51.488;0.152;2023-02-23T04:37:13;7.80;99.90
29731;DHT22;16639;51.488;0.152;2023-02-23T04:39:40;7.80;99.90
29731;DHT22;16639;51.488;0.152;2023-02-23T04:42:16;7.80;99.90
29731;DHT22;16639;51.488;0.152;2023-02-23T04:44:44;7.80;99.90
29731;DHT22;16639;51.488;0.152;2023-02-23T04:47:13;7.80;99.90
29731;DHT22;16639;51.488;0.152;2023-02-23T04:49:43;7.80;99.90
29731;DHT22;16639;51.488;0.152;2023-02-23T04:52:10;7.70;99.90
29731;DHT22;16639;51.488;0.152;2023-02-23T04:54:38;7.80;99.90
29731;DHT22;16639;51.488;0.152;2023-02-23T04:57:06;7.70;99.90
29731;DHT22;16639;51.488;0.152;2023-02-23T04:59:33;7.70;99.90
29731;DHT22;16639;51.488;0.152;2023-02-23T05:02:01;7.70;99.90
29731;DHT22;16639;51.488;0.152;2023-02-23T05:04:28;7.70;99.90
29731;DHT22;16639;51.488;0.152;2023-02-23T05:06:56;7.70;99.90
29731;DHT22;16639;51.488;0.152;2023-02-23T05:09:23;7.70;99.90
29731;DHT22;16639;51.488;0.152;2023-02-23T05:11:51;7.70;99.90
29731;DHT22;16639;51.488;0.152;2023-02-23T05:14:18;7.70;99.90
29731;DHT22;16639;51.488;0.152;2023-02-23T05:16:45;7.70;99.90
29731;DHT22;16639;51.488;0.152;2023-02-23T05:19:12;7.70;99.90
29731;DHT22;16639;51.488;0.152;2023-02-23T05:21:40;7.70;99.90
29731;DHT22;16639;51.488;0.152;2023-02-23T05:24:08;7.70;99.90
29731;DHT22;16639;51.488;0.152;2023-02-23T05:26:35;7.60;99.90
29731;DHT22;16639;51.488;0.152;2023-02-23T05:29:03;7.60;99.90
29731;DHT22;16639;51.488;0.152;2023-02-23T05:31:32;7.60;99.90
29731;DHT22;16639;51.488;0.152;2023-02-23T05:34:00;7.70;99.90
29731;DHT22;16639;51.488;0.152;2023-02-23T05:36:27;7.70;99.90
29731;DHT22;16639;51.488;0.152;2023-02-23T05:38:55;7.70;99.90
29731;DHT22;16639;51.488;0.152;2023-02-23T05:41:22;7.80;99.90
29731;DHT22;16639;51.488;0.152;2023-02-23T05:43:50;7.80;99.90
29731;DHT22;16639;51.488;0.152;2023-02-23T05:46:21;7.70;99.90
29731;DHT22;16639;51.488;0.152;2023-02-23T05:48:54;7.70;99.90
29731;DHT22;16639;51.488;0.152;2023-02-23T05:51:22;7.60;99.90
29731;DHT22;16639;51.488;0.152;2023-02-23T05:53:50;7.60;99.90
29731;DHT22;16639;51.488;0.152;2023-02-23T05:56:18;7.70;99.90
29731;DHT22;16639;51.488;0.152;2023-02-23T05:58:54;7.70;99.90
29731;DHT22;16639;51.488;0.152;2023-02-23T06:01:25;7.70;99.90
29731;DHT22;16639;51.488;0.152;2023-02-23T06:03:52;7.80;99.90
29731;DHT22;16639;51.488;0.152;2023-02-23T06:06:20;7.80;99.90
29731;DHT22;16639;51.488;0.152;2023-02-23T06:08:48;8.50;99.90
29731;DHT22;16639;51.488;0.152;2023-02-23T06:11:16;7.80;99.90
29731;DHT22;16639;51.488;0.152;2023-02-23T06:13:44;7.80;99.90
29731;DHT22;16639;51.488;0.152;2023-02-23T06:16:11;7.80;99.90
29731;DHT22;16639;51.488;0.152;2023-02-23T06:18:39;7.80;99.90
29731;DHT22;16639;51.488;0.152;2023-02-23T06:21:06;7.80;99.90
29731;DHT22;16639;51.488;0.152;2023-02-23T06:23:33;7.80;99.90
29731;DHT22;16639;51.488;0.152;2023-02-23T06:26:01;7.70;99.90
29731;DHT22;16639;51.488;0.152;2023-02-23T06:28:28;7.50;99.90
29731;DHT22;16639;51.488;0.152;2023-02-23T06:30:56;7.80;99.90
29731;DHT22;16639;51.488;0.152;2023-02-23T06:33:24;7.80;99.90
29731;DHT22;16639;51.488;0.152;2023-02-23T06:35:52;7.80;99.90
29731;DHT22;16639;51.488;0.152;2023-02-23T06:38:21;7.80;99.90
29731;DHT22;16639;51.488;0.152;2023-02-23T06:40:48;7.90;99.90
29731;DHT22;16639;51.488;0.152;2023-02-23T06:43:16;8.10;99.90
29731;DHT22;16639;51.488;0.152;2023-02-23T06:45:44;7.80;99.90
29731;DHT22;16639;51.488;0.152;2023-02-23T06:48:12;7.80;99.90
29731;DHT22;16639;51.488;0.152;2023-02-23T06:50:39;7.80;99.90
29731;DHT22;16639;51.488;0.152;2023-02-23T06:53:07;7.90;99.90
29731;DHT22;16639;51.488;0.152;2023-02-23T06:55:34;8.20;99.90
29731;DHT22;16639;51.488;0.152;2023-02-23T06:58:01;7.80;99.90
29731;DHT22;16639;51.488;0.152;2023-02-23T07:00:31;7.90;99.90
29731;DHT22;16639;51.488;0.152;2023-02-23T07:02:58;7.80;99.90
29731;DHT22;16639;51.488;0.152;2023-02-23T07:05:26;7.90;99.90
29731;DHT22;16639;51.488;0.152;2023-02-23T07:07:53;7.90;99.90
29731;DHT22;16639;51.488;0.152;2023-02-23T07:10:20;7.90;99.90
29731;DHT22;16639;51.488;0.152;2023-02-23T07:12:48;7.90;99.90
29731;DHT22;16639;51.488;0.152;2023-02-23T07:15:15;7.90;99.90
29731;DHT22;16639;51.488;0.152;2023-02-23T07:17:44;7.90;99.90
29731;DHT22;16639;51.488;0.152;2023-02-23T07:20:14;8.00;99.90
29731;DHT22;16639;51.488;0.152;2023-02-23T07:22:42;8.00;99.90
29731;DHT22;16639;51.488;0.152;2023-02-23T07:25:09;8.00;99.90
29731;DHT22;16639;51.488;0.152;2023-02-23T07:27:37;7.90;99.90
29731;DHT22;16639;51.488;0.152;2023-02-23T07:30:05;7.90;99.90
29731;DHT22;16639;51.488;0.152;2023-02-23T07:32:32;7.90;99.90
29731;DHT22;16639;51.488;0.152;2023-02-23T07:35:00;7.90;99.90
29731;DHT22;16639;51.488;0.152;2023-02-23T07:37:27;7.90;99.90
29731;DHT22;16639;51.488;0.152;2023-02-23T07:39:55;7.90;99.90
29731;DHT22;16639;51.488;0.152;2023-02-23T07:42:22;7.90;99.90
29731;DHT22;16639;51.488;0.152;2023-02-23T07:44:50;8.00;99.90
29731;DHT22;16639;51.488;0.152;2023-02-23T07:47:17;8.00;99.90
29731;DHT22;16639;51.488;0.152;2023-02-23T07:49:44;8.10;99.90
29731;DHT22;16639;51.488;0.152;2023-02-23T07:52:12;8.00;99.90
29731;DHT22;16639;51.488;0.152;2023-02-23T07:54:42;8.00;99.90
29731;DHT22;16639;51.488;0.152;2023-02-23T07:57:10;7.90;99.90
29731;DHT22;16639;51.488;0.152;2023-02-23T07:59:38;8.00;99.90
29731;DHT22;16639;51.488;0.152;2023-02-23T08:02:06;8.00;99.90
29731;DHT22;16639;51.488;0.152;2023-02-23T08:04:33;7.90;99.90
29731;DHT22;16639;51.488;0.152;2023-02-23T08:07:00;7.90;99.90
29731;DHT22;16639;51.488;0.152;2023-02-23T08:09:28;7.90;99.90
29731;DHT22;16639;51.488;0.152;2023-02-23T08:11:59;7.90;99.90
29731;DHT22;16639;51.488;0.152;2023-02-23T08:14:26;7.30;99.90
29731;DHT22;16639;51.488;0.152;2023-02-23T08:16:53;8.00;99.90
29731;DHT22;16639;51.488;0.152;2023-02-23T08:19:21;8.00;99.90
29731;DHT22;16639;51.488;0.152;2023-02-23T08:21:49;9.40;99.90
29731;DHT22;16639;51.488;0.152;2023-02-23T08:24:17;7.90;99.90
29731;DHT22;16639;51.488;0.152;2023-02-23T08:26:44;7.90;99.90
29731;DHT22;16639;51.488;0.152;2023-02-23T08:29:11;8.00;99.90
29731;DHT22;16639;51.488;0.152;2023-02-23T08:31:39;8.00;99.90
29731;DHT22;16639;51.488;0.152;2023-02-23T08:34:06;8.00;99.90
29731;DHT22;16639;51.488;0.152;2023-02-23T08:36:34;8.50;99.90
29731;DHT22;16639;51.488;0.152;2023-02-23T08:39:02;8.00;99.90
29731;DHT22;16639;51.488;0.152;2023-02-23T08:41:33;8.00;99.90
29731;DHT22;16639;51.488;0.152;2023-02-23T08:44:01;8.00;99.90
29731;DHT22;16639;51.488;0.152;2023-02-23T08:46:28;8.10;99.90
29731;DHT22;16639;51.488;0.152;2023-02-23T08:48:56;8.10;99.90
29731;DHT22;16639;51.488;0.152;2023-02-23T08:51:24;7.80;99.90
29731;DHT22;16639;51.488;0.152;2023-02-23T08:53:51;8.10;99.90
29731;DHT22;16639;51.488;0.152;2023-02-23T08:56:18;8.10;99.90
29731;DHT22;16639;51.488;0.152;2023-02-23T08:58:46;8.10;99.90
29731;DHT22;16639;51.488;0.152;2023-02-23T09:01:18;8.10;99.90
29731;DHT22;16639;51.488;0.152;2023-02-23T09:03:47;8.10;99.90
29731;DHT22;16639;51.488;0.152;2023-02-23T09:06:18;8.50;99.90
29731;DHT22;16639;51.488;0.152;2023-02-23T09:08:45;8.20;99.90
29731;DHT22;16639;51.488;0.152;2023-02-23T09:11:13;8.20;99.90
29731;DHT22;16639;51.488;0.152;2023-02-23T09:13:40;9.70;99.90
29731;DHT22;16639;51.488;0.152;2023-02-23T09:16:08;8.20;99.90
29731;DHT22;16639;51.488;0.152;2023-02-23T09:18:36;8.20;99.90
29731;DHT22;16639;51.488;0.152;2023-02-23T09:21:06;8.20;99.90
29731;DHT22;16639;51.488;0.152;2023-02-23T09:23:34;8.20;99.90
29731;DHT22;16639;51.488;0.152;2023-02-23T09:26:03;8.30;99.90
29731;DHT22;16639;51.488;0.152;2023-02-23T09:28:32;8.30;99.90
29731;DHT22;16639;51.488;0.152;2023-02-23T09:31:11;8.40;99.90
29731;DHT22;16639;51.488;0.152;2023-02-23T09:33:40;8.40;99.90
29731;DHT22;16639;51.488;0.152;2023-02-23T09:36:13;8.30;99.90
29731;DHT22;16639;51.488;0.152;2023-02-23T09:38:46;8.20;99.90
29731;DHT22;16639;51.488;0.152;2023-02-23T09:41:45;8.20;99.90
29731;DHT22;16639;51.488;0.152;2023-02-23T09:49:40;8.30;99.90
29731;DHT22;16639;51.488;0.152;2023-02-23T09:52:17;8.30;99.90
29731;DHT22;16639;51.488;0.152;2023-02-23T09:54:46;8.30;99.90
29731;DHT22;16639;51.488;0.152;2023-02-23T09:57:17;8.30;99.90
29731;DHT22;16639;51.488;0.152;2023-02-23T09:59:46;8.30;99.90
29731;DHT22;16639;51.488;0.152;2023-02-23T10:05:03;8.00;99.90
29731;DHT22;16639;51.488;0.152;2023-02-23T10:07:46;8.20;99.90
29731;DHT22;16639;51.488;0.152;2023-02-23T10:10:21;9.10;99.90
29731;DHT22;16639;51.488;0.152;2023-02-23T10:13:20;8.30;99.90
29731;DHT22;16639;51.488;0.152;2023-02-23T10:15:57;8.40;99.90
29731;DHT22;16639;51.488;0.152;2023-02-23T10:19:09;8.50;99.90
29731;DHT22;16639;51.488;0.152;2023-02-23T10:21:42;8.50;99.90
29731;DHT22;16639;51.488;0.152;2023-02-23T10:24:29;8.60;99.90
29731;DHT22;16639;51.488;0.152;2023-02-23T10:27:15;8.60;99.90
29731;DHT22;16639;51.488;0.152;2023-02-23T10:29:57;8.70;99.90
29731;DHT22;16639;51.488;0.152;2023-02-23T10:34:54;8.80;99.90
29731;DHT22;16639;51.488;0.152;2023-02-23T10:37:24;9.10;99.90
29731;DHT22;16639;51.488;0.152;2023-02-23T10:39:52;8.70;99.90
29731;DHT22;16639;51.488;0.152;2023-02-23T10:42:25;8.70;99.90
29731;DHT22;16639;51.488;0.152;2023-02-23T10:44:56;8.70;99.90
29731;DHT22;16639;51.488;0.152;2023-02-23T10:47:34;8.70;99.90
29731;DHT22;16639;51.488;0.152;2023-02-23T10:50:02;8.60;99.90
29731;DHT22;16639;51.488;0.152;2023-02-23T10:52:40;8.70;99.90
29731;DHT22;16639;51.488;0.152;2023-02-23T10:55:26;9.60;99.90
29731;DHT22;16639;51.488;0.152;2023-02-23T11:01:13;9.20;99.90
29731;DHT22;16639;51.488;0.152;2023-02-23T11:03:45;8.60;99.90
29731;DHT22;16639;51.488;0.152;2023-02-23T11:06:34;8.50;99.90
29731;DHT22;16639;51.488;0.152;2023-02-23T11:09:22;8.30;99.90
29731;DHT22;16639;51.488;0.152;2023-02-23T11:14:53;8.70;99.90
29731;DHT22;16639;51.488;0.152;2023-02-23T11:17:37;8.70;99.90
29731;DHT22;16639;51.488;0.152;2023-02-23T11:20:17;7.50;99.90
29731;DHT22;16639;51.488;0.152;2023-02-23T11:22:45;8.70;99.90
29731;DHT22;16639;51.488;0.152;2023-02-23T11:25:31;8.70;99.90
29731;DHT22;16639;51.488;0.152;2023-02-23T11:27:59;8.60;99.90
29731;DHT22;16639;51.488;0.152;2023-02-23T11:30:33;8.70;99.90
29731;DHT22;16639;51.488;0.152;2023-02-23T11:33:04;8.70;99.90
29731;DHT22;16639;51.488;0.152;2023-02-23T11:35:38;8.70;99.90
29731;DHT22;16639;51.488;0.152;2023-02-23T11:38:34;8.80;99.90
29731;DHT22;16639;51.488;0.152;2023-02-23T11:41:16;8.80;99.90
29731;DHT22;16639;51.488;0.152;2023-02-23T11:43:56;9.60;99.90
29731;DHT22;16639;51.488;0.152;2023-02-23T11:46:25;8.80;99.90
29731;DHT22;16639;51.488;0.152;2023-02-23T11:49:07;8.90;99.90
29731;DHT22;16639;51.488;0.152;2023-02-23T11:51:44;8.90;99.90
29731;DHT22;16639;51.488;0.152;2023-02-23T11:54:33;9.20;99.90
29731;DHT22;16639;51.488;0.152;2023-02-23T11:57:01;8.80;99.90
29731;DHT22;16639;51.488;0.152;2023-02-23T11:59:36;8.90;99.90
29731;DHT22;16639;51.488;0.152;2023-02-23T12:02:18;8.80;99.90
29731;DHT22;16639;51.488;0.152;2023-02-23T12:05:07;9.30;99.90
29731;DHT22;16639;51.488;0.152;2023-02-23T12:10:43;8.90;99.90
29731;DHT22;16639;51.488;0.152;2023-02-23T12:16:17;9.00;99.90
29731;DHT22;16639;51.488;0.152;2023-02-23T12:19:01;9.10;99.90
29731;DHT22;16639;51.488;0.152;2023-02-23T12:21:38;10.00;99.90
29731;DHT22;16639;51.488;0.152;2023-02-23T12:26:59;9.10;99.90
29731;DHT22;16639;51.488;0.152;2023-02-23T12:35:22;8.80;99.90
29731;DHT22;16639;51.488;0.152;2023-02-23T12:38:14;9.20;99.90
29731;DHT22;16639;51.488;0.152;2023-02-23T12:40:44;9.10;99.90
29731;DHT22;16639;51.488;0.152;2023-02-23T12:46:09;9.20;99.90
29731;DHT22;16639;51.488;0.152;2023-02-23T12:49:05;9.10;99.90
29731;DHT22;16639;51.488;0.152;2023-02-23T12:51:42;9.10;99.90
29731;DHT22;16639;51.488;0.152;2023-02-23T12:54:14;9.10;99.90
29731;DHT22;16639;51.488;0.152;2023-02-23T12:56:59;8.80;99.90
29731;DHT22;16639;51.488;0.152;2023-02-23T12:59:45;9.10;99.90
29731;DHT22;16639;51.488;0.152;2023-02-23T13:02:40;9.20;99.90
29731;DHT22;16639;51.488;0.152;2023-02-23T13:06:32;8.70;99.90
29731;DHT22;16639;51.488;0.152;2023-02-23T13:09:17;9.00;99.90
29731;DHT22;16639;51.488;0.152;2023-02-23T13:18:13;8.90;99.90
29731;DHT22;16639;51.488;0.152;2023-02-23T13:23:40;8.80;99.90
29731;DHT22;16639;51.488;0.152;2023-02-23T13:29:06;8.90;99.90
29731;DHT22;16639;51.488;0.152;2023-02-23T13:31:38;8.60;99.90
29731;DHT22;16639;51.488;0.152;2023-02-23T13:34:31;9.00;99.90
29731;DHT22;16639;51.488;0.152;2023-02-23T13:37:04;9.00;99.90
29731;DHT22;16639;51.488;0.152;2023-02-23T13:45:35;9.00;99.90
29731;DHT22;16639;51.488;0.152;2023-02-23T13:49:14;9.20;99.90
29731;DHT22;16639;51.488;0.152;2023-02-23T13:51:51;9.30;99.90
29731;DHT22;16639;51.488;0.152;2023-02-23T13:54:32;9.30;99.90
29731;DHT22;16639;51.488;0.152;2023-02-23T13:57:03;9.30;99.90
29731;DHT22;16639;51.488;0.152;2023-02-23T13:59:41;9.30;99.90
29731;DHT22;16639;51.488;0.152;2023-02-23T14:05:04;9.30;99.90
29731;DHT22;16639;51.488;0.152;2023-02-23T14:07:38;9.30;99.90
29731;DHT22;16639;51.488;0.152;2023-02-23T14:10:13;9.30;99.90
29731;DHT22;16639;51.488;0.152;2023-02-23T14:13:23;9.30;99.90
29731;DHT22;16639;51.488;0.152;2023-02-23T14:18:53;9.40;99.90
29731;DHT22;16639;51.488;0.152;2023-02-23T14:24:26;9.30;99.90
29731;DHT22;16639;51.488;0.152;2023-02-23T14:29:30;9.20;99.90
29731;DHT22;16639;51.488;0.152;2023-02-23T14:34:57;9.20;99.90
29731;DHT22;16639;51.488;0.152;2023-02-23T14:37:36;9.20;99.90
29731;DHT22;16639;51.488;0.152;2023-02-23T14:40:20;9.20;99.90
29731;DHT22;16639;51.488;0.152;2023-02-23T14:42:50;9.20;99.90
29731;DHT22;16639;51.488;0.152;2023-02-23T14:45:25;9.10;99.90
29731;DHT22;16639;51.488;0.152;2023-02-23T14:47:57;9.10;99.90
29731;DHT22;16639;51.488;0.152;2023-02-23T14:50:30;9.00;99.90
29731;DHT22;16639;51.488;0.152;2023-02-23T14:52:58;9.10;99.90
29731;DHT22;16639;51.488;0.152;2023-02-23T14:55:32;9.10;99.90
29731;DHT22;16639;51.488;0.152;2023-02-23T14:58:28;9.10;99.90
29731;DHT22;16639;51.488;0.152;2023-02-23T15:00:56;9.10;99.90
29731;DHT22;16639;51.488;0.152;2023-02-23T15:03:24;9.00;99.90
29731;DHT22;16639;51.488;0.152;2023-02-23T15:05:55;9.00;99.90
29731;DHT22;16639;51.488;0.152;2023-02-23T15:08:25;9.00;99.90
29731;DHT22;16639;51.488;0.152;2023-02-23T15:11:02;9.00;99.90
29731;DHT22;16639;51.488;0.152;2023-02-23T15:13:35;9.00;99.90
29731;DHT22;16639;51.488;0.152;2023-02-23T15:16:05;9.00;99.90
29731;DHT22;16639;51.488;0.152;2023-02-23T15:18:40;9.40;99.90
29731;DHT22;16639;51.488;0.152;2023-02-23T15:21:20;9.10;99.90
29731;DHT22;16639;51.488;0.152;2023-02-23T15:23:58;9.20;99.90
29731;DHT22;16639;51.488;0.152;2023-02-23T15:26:33;9.10;99.90
29731;DHT22;16639;51.488;0.152;2023-02-23T15:31:31;9.10;99.90
29731;DHT22;16639;51.488;0.152;2023-02-23T15:33:58;9.00;99.90
29731;DHT22;16639;51.488;0.152;2023-02-23T15:36:27;9.00;99.90
29731;DHT22;16639;51.488;0.152;2023-02-23T15:38:57;9.00;99.90
29731;DHT22;16639;51.488;0.152;2023-02-23T15:41:29;9.00;99.90
29731;DHT22;16639;51.488;0.152;2023-02-23T15:44:06;9.00;99.90
29731;DHT22;16639;51.488;0.152;2023-02-23T15:46:36;8.90;99.90
29731;DHT22;16639;51.488;0.152;2023-02-23T15:49:04;8.80;99.90
29731;DHT22;16639;51.488;0.152;2023-02-23T15:52:19;8.80;99.90
29731;DHT22;16639;51.488;0.152;2023-02-23T15:54:33;8.70;99.90
29731;DHT22;16639;51.488;0.152;2023-02-23T15:57:05;8.70;99.90
29731;DHT22;16639;51.488;0.152;2023-02-23T15:59:35;9.50;99.90
29731;DHT22;16639;51.488;0.152;2023-02-23T16:02:13;8.60;99.90
29731;DHT22;16639;51.488;0.152;2023-02-23T16:04:42;8.60;99.90
29731;DHT22;16639;51.488;0.152;2023-02-23T16:09:54;8.50;99.90
29731;DHT22;16639;51.488;0.152;2023-02-23T16:12:25;8.40;99.90
29731;DHT22;16639;51.488;0.152;2023-02-23T16:15:04;8.40;99.90
29731;DHT22;16639;51.488;0.152;2023-02-23T16:17:57;8.40;99.90
29731;DHT22;16639;51.488;0.152;2023-02-23T16:20:32;8.40;99.90
29731;DHT22;16639;51.488;0.152;2023-02-23T16:23:06;8.40;99.90
29731;DHT22;16639;51.488;0.152;2023-02-23T16:25:40;8.40;99.90
29731;DHT22;16639;51.488;0.152;2023-02-23T16:28:13;8.40;99.90
29731;DHT22;16639;51.488;0.152;2023-02-23T16:31:00;8.40;99.90
29731;DHT22;16639;51.488;0.152;2023-02-23T16:33:41;8.50;99.90
29731;DHT22;16639;51.488;0.152;2023-02-23T16:38:40;8.20;99.90
29731;DHT22;16639;51.488;0.152;2023-02-23T16:41:21;8.30;99.90
29731;DHT22;16639;51.488;0.152;2023-02-23T16:43:50;8.20;99.90
29731;DHT22;16639;51.488;0.152;2023-02-23T16:46:21;8.10;99.90
29731;DHT22;16639;51.488;0.152;2023-02-23T17:00:31;8.10;99.90
29731;DHT22;16639;51.488;0.152;2023-02-23T17:02:59;8.10;99.90
29731;DHT22;16639;51.488;0.152;2023-02-23T17:05:38;8.70;99.90
29731;DHT22;16639;51.488;0.152;2023-02-23T17:08:06;7.90;99.90
29731;DHT22;16639;51.488;0.152;2023-02-23T17:10:34;7.90;99.90
29731;DHT22;16639;51.488;0.152;2023-02-23T17:13:04;7.90;99.90
29731;DHT22;16639;51.488;0.152;2023-02-23T17:15:35;7.90;99.90
29731;DHT22;16639;51.488;0.152;2023-02-23T17:18:04;7.80;99.90
29731;DHT22;16639;51.488;0.152;2023-02-23T17:20:31;7.90;99.90
29731;DHT22;16639;51.488;0.152;2023-02-23T17:23:00;7.80;99.90
29731;DHT22;16639;51.488;0.152;2023-02-23T17:25:28;7.80;99.90
29731;DHT22;16639;51.488;0.152;2023-02-23T17:27:59;7.80;99.90
29731;DHT22;16639;51.488;0.152;2023-02-23T17:30:35;7.90;99.90
29731;DHT22;16639;51.488;0.152;2023-02-23T17:33:05;7.90;99.90
29731;DHT22;16639;51.488;0.152;2023-02-23T17:35:34;9.30;99.90
29731;DHT22;16639;51.488;0.152;2023-02-23T17:38:04;7.90;99.90
29731;DHT22;16639;51.488;0.152;2023-02-23T17:40:33;7.90;99.90
29731;DHT22;16639;51.488;0.152;2023-02-23T17:43:04;7.90;99.90
29731;DHT22;16639;51.488;0.152;2023-02-23T17:45:33;7.80;99.90
29731;DHT22;16639;51.488;0.152;2023-02-23T17:48:01;7.80;99.90
29731;DHT22;16639;51.488;0.152;2023-02-23T17:50:28;7.70;99.90
29731;DHT22;16639;51.488;0.152;2023-02-23T17:52:56;7.70;99.90
29731;DHT22;16639;51.488;0.152;2023-02-23T17:55:24;7.70;99.90
29731;DHT22;16639;51.488;0.152;2023-02-23T17:57:51;8.30;99.90
29731;DHT22;16639;51.488;0.152;2023-02-23T18:00:19;7.60;99.90
29731;DHT22;16639;51.488;0.152;2023-02-23T18:02:46;8.30;99.90
29731;DHT22;16639;51.488;0.152;2023-02-23T18:05:14;7.90;99.90
29731;DHT22;16639;51.488;0.152;2023-02-23T18:07:42;7.50;99.90
29731;DHT22;16639;51.488;0.152;2023-02-23T18:10:09;7.60;99.90
29731;DHT22;16639;51.488;0.152;2023-02-23T18:12:37;7.40;99.90
29731;DHT22;16639;51.488;0.152;2023-02-23T18:15:05;7.40;99.90
29731;DHT22;16639;51.488;0.152;2023-02-23T18:17:33;7.40;99.90
29731;DHT22;16639;51.488;0.152;2023-02-23T18:20:04;7.50;99.90
29731;DHT22;16639;51.488;0.152;2023-02-23T18:22:50;7.50;99.90
29731;DHT22;16639;51.488;0.152;2023-02-23T18:26:15;7.40;99.90
29731;DHT22;16639;51.488;0.152;2023-02-23T18:29:16;7.50;99.90
29731;DHT22;16639;51.488;0.152;2023-02-23T18:32:37;7.30;99.90
29731;DHT22;16639;51.488;0.152;2023-02-23T18:35:42;7.40;99.90